sensor_id;sensor_type;location;lat;lon;timestamp;P1;durP1;ratioP1;P2;durP2;ratioP2
25531;SDS011;13429;48.816;9.118;2023-04-15T00:01:11;13.10;;;4.68;;
25531;SDS011;13429;48.816;9.118;2023-04-15T00:03:42;8.07;;;4.88;;
25531;SDS011;13429;48.816;9.118;2023-04-15T00:06:09;9.63;;;4.70;;
25531;SDS011;13429;48.816;9.118;2023-04-15T00:08:35;9.20;;;4.40;;
25531;SDS011;13429;48.816;9.118;2023-04-15T00:11:01;10.10;;;5.03;;
25531;SDS011;13429;48.816;9.118;2023-04-15T00:13:29;7.82;;;4.43;;
25531;SDS011;13429;48.816;9.118;2023-04-15T00:15:56;9.30;;;4.75;;
25531;SDS011;13429;48.816;9.118;2023-04-15T00:18:22;11.52;;;4.55;;
25531;SDS011;13429;48.816;9.118;2023-04-15T00:20:49;8.45;;;4.63;;
25531;SDS011;13429;48.816;9.118;2023-04-15T00:23:15;12.82;;;5.07;;
25531;SDS011;13429;48.816;9.118;2023-04-15T00:25:41;9.07;;;4.70;;
25531;SDS011;13429;48.816;9.118;2023-04-15T00:28:07;10.57;;;4.85;;
25531;SDS011;13429;48.816;9.118;2023-04-15T00:30:33;12.52;;;4.85;;
25531;SDS011;13429;48.816;9.118;2023-04-15T00:32:59;6.78;;;4.32;;
25531;SDS011;13429;48.816;9.118;2023-04-15T00:35:26;11.23;;;5.30;;
25531;SDS011;13429;48.816;9.118;2023-04-15T00:37:52;11.07;;;4.60;;
25531;SDS011;13429;48.816;9.118;2023-04-15T00:40:19;8.25;;;4.40;;
25531;SDS011;13429;48.816;9.118;2023-04-15T00:42:48;10.60;;;4.40;;
25531;SDS011;13429;48.816;9.118;2023-04-15T00:45:14;11.32;;;4.57;;
25531;SDS011;13429;48.816;9.118;2023-04-15T00:47:40;10.57;;;4.47;;
25531;SDS011;13429;48.816;9.118;2023-04-15T00:50:08;9.75;;;4.68;;
25531;SDS011;13429;48.816;9.118;2023-04-15T00:52:34;9.25;;;4.40;;
25531;SDS011;13429;48.816;9.118;2023-04-15T00:55:01;8.63;;;4.72;;
25531;SDS011;13429;48.816;9.118;2023-04-15T00:57:28;7.85;;;4.38;;
25531;SDS011;13429;48.816;9.118;2023-04-15T00:59:55;8.25;;;4.80;;
25531;SDS011;13429;48.816;9.118;2023-04-15T01:02:21;7.53;;;4.60;;
25531;SDS011;13429;48.816;9.118;2023-04-15T01:04:47;7.68;;;4.18;;
25531;SDS011;13429;48.816;9.118;2023-04-15T01:07:14;8.10;;;4.78;;
25531;SDS011;13429;48.816;9.118;2023-04-15T01:09:40;8.18;;;5.28;;
25531;SDS011;13429;48.816;9.118;2023-04-15T01:12:06;11.35;;;5.30;;
25531;SDS011;13429;48.816;9.118;2023-04-15T01:14:34;13.27;;;4.88;;
25531;SDS011;13429;48.816;9.118;2023-04-15T01:17:00;10.02;;;4.88;;
25531;SDS011;13429;48.816;9.118;2023-04-15T01:19:27;8.93;;;4.35;;
25531;SDS011;13429;48.816;9.118;2023-04-15T01:21:53;10.45;;;4.63;;
25531;SDS011;13429;48.816;9.118;2023-04-15T01:24:19;9.15;;;4.40;;
25531;SDS011;13429;48.816;9.118;2023-04-15T01:26:45;10.73;;;4.50;;
25531;SDS011;13429;48.816;9.118;2023-04-15T01:29:12;8.50;;;4.45;;
25531;SDS011;13429;48.816;9.118;2023-04-15T01:31:39;5.78;;;3.88;;
25531;SDS011;13429;48.816;9.118;2023-04-15T01:34:05;9.00;;;4.70;;
25531;SDS011;13429;48.816;9.118;2023-04-15T01:36:31;8.82;;;4.32;;
25531;SDS011;13429;48.816;9.118;2023-04-15T01:38:57;7.38;;;4.30;;
25531;SDS011;13429;48.816;9.118;2023-04-15T01:41:26;10.77;;;4.75;;
25531;SDS011;13429;48.816;9.118;2023-04-15T01:43:53;9.35;;;4.72;;
25531;SDS011;13429;48.816;9.118;2023-04-15T01:46:19;7.82;;;4.00;;
25531;SDS011;13429;48.816;9.118;2023-04-15T01:48:45;8.43;;;4.20;;
25531;SDS011;13429;48.816;9.118;2023-04-15T01:51:11;6.68;;;3.90;;
25531;SDS011;13429;48.816;9.118;2023-04-15T01:53:38;8.23;;;4.03;;
25531;SDS011;13429;48.816;9.118;2023-04-15T01:56:04;8.55;;;4.65;;
25531;SDS011;13429;48.816;9.118;2023-04-15T01:58:31;8.35;;;4.10;;
25531;SDS011;13429;48.816;9.118;2023-04-15T02:00:57;8.73;;;5.05;;
25531;SDS011;13429;48.816;9.118;2023-04-15T02:03:27;9.93;;;4.18;;
25531;SDS011;13429;48.816;9.118;2023-04-15T02:05:53;6.83;;;4.47;;
25531;SDS011;13429;48.816;9.118;2023-04-15T02:08:19;8.93;;;3.85;;
25531;SDS011;13429;48.816;9.118;2023-04-15T02:10:45;7.13;;;3.80;;
25531;SDS011;13429;48.816;9.118;2023-04-15T02:13:12;7.22;;;4.25;;
25531;SDS011;13429;48.816;9.118;2023-04-15T02:15:38;9.60;;;4.53;;
25531;SDS011;13429;48.816;9.118;2023-04-15T02:18:04;9.00;;;4.22;;
25531;SDS011;13429;48.816;9.118;2023-04-15T02:20:30;8.50;;;4.50;;
25531;SDS011;13429;48.816;9.118;2023-04-15T02:22:56;11.18;;;4.82;;
25531;SDS011;13429;48.816;9.118;2023-04-15T02:25:22;9.27;;;4.90;;
25531;SDS011;13429;48.816;9.118;2023-04-15T02:27:48;11.88;;;4.80;;
25531;SDS011;13429;48.816;9.118;2023-04-15T02:30:15;7.82;;;4.45;;
25531;SDS011;13429;48.816;9.118;2023-04-15T02:32:41;9.10;;;4.60;;
25531;SDS011;13429;48.816;9.118;2023-04-15T02:35:08;16.15;;;5.63;;
25531;SDS011;13429;48.816;9.118;2023-04-15T02:37:36;9.40;;;4.75;;
25531;SDS011;13429;48.816;9.118;2023-04-15T02:40:08;10.75;;;4.40;;
25531;SDS011;13429;48.816;9.118;2023-04-15T02:42:36;11.13;;;4.65;;
25531;SDS011;13429;48.816;9.118;2023-04-15T02:45:02;9.32;;;4.70;;
25531;SDS011;13429;48.816;9.118;2023-04-15T02:47:28;6.80;;;3.92;;
25531;SDS011;13429;48.816;9.118;2023-04-15T02:49:54;6.15;;;4.10;;
25531;SDS011;13429;48.816;9.118;2023-04-15T02:52:20;8.57;;;3.72;;
25531;SDS011;13429;48.816;9.118;2023-04-15T02:54:46;7.78;;;3.70;;
25531;SDS011;13429;48.816;9.118;2023-04-15T02:57:12;7.32;;;4.00;;
25531;SDS011;13429;48.816;9.118;2023-04-15T02:59:38;9.48;;;3.80;;
25531;SDS011;13429;48.816;9.118;2023-04-15T03:02:04;6.78;;;3.38;;
25531;SDS011;13429;48.816;9.118;2023-04-15T03:04:31;6.28;;;3.05;;
25531;SDS011;13429;48.816;9.118;2023-04-15T03:06:57;8.50;;;3.28;;
25531;SDS011;13429;48.816;9.118;2023-04-15T03:09:25;4.63;;;2.65;;
25531;SDS011;13429;48.816;9.118;2023-04-15T03:11:51;7.45;;;2.88;;
25531;SDS011;13429;48.816;9.118;2023-04-15T03:14:18;8.98;;;2.90;;
25531;SDS011;13429;48.816;9.118;2023-04-15T03:16:44;6.25;;;2.45;;
25531;SDS011;13429;48.816;9.118;2023-04-15T03:19:10;5.90;;;3.05;;
25531;SDS011;13429;48.816;9.118;2023-04-15T03:21:37;4.45;;;2.60;;
25531;SDS011;13429;48.816;9.118;2023-04-15T03:24:03;12.02;;;3.08;;
25531;SDS011;13429;48.816;9.118;2023-04-15T03:26:29;4.72;;;2.58;;
25531;SDS011;13429;48.816;9.118;2023-04-15T03:28:56;5.10;;;3.15;;
25531;SDS011;13429;48.816;9.118;2023-04-15T03:31:22;5.45;;;3.17;;
25531;SDS011;13429;48.816;9.118;2023-04-15T03:33:48;5.78;;;3.30;;
25531;SDS011;13429;48.816;9.118;2023-04-15T03:36:15;8.48;;;4.15;;
25531;SDS011;13429;48.816;9.118;2023-04-15T03:38:41;9.52;;;4.32;;
25531;SDS011;13429;48.816;9.118;2023-04-15T03:41:07;8.82;;;4.15;;
25531;SDS011;13429;48.816;9.118;2023-04-15T03:43:33;12.05;;;3.75;;
25531;SDS011;13429;48.816;9.118;2023-04-15T03:46:00;9.23;;;4.45;;
25531;SDS011;13429;48.816;9.118;2023-04-15T03:48:26;9.02;;;3.85;;
25531;SDS011;13429;48.816;9.118;2023-04-15T03:50:52;12.48;;;5.78;;
25531;SDS011;13429;48.816;9.118;2023-04-15T03:53:19;7.40;;;3.95;;
25531;SDS011;13429;48.816;9.118;2023-04-15T03:55:45;8.38;;;3.92;;
25531;SDS011;13429;48.816;9.118;2023-04-15T03:58:11;5.65;;;3.55;;
25531;SDS011;13429;48.816;9.118;2023-04-15T04:00:38;10.75;;;4.60;;
25531;SDS011;13429;48.816;9.118;2023-04-15T04:03:05;7.28;;;4.22;;
25531;SDS011;13429;48.816;9.118;2023-04-15T04:05:32;6.68;;;3.60;;
25531;SDS011;13429;48.816;9.118;2023-04-15T04:08:01;8.70;;;4.72;;
25531;SDS011;13429;48.816;9.118;2023-04-15T04:10:26;6.15;;;3.45;;
25531;SDS011;13429;48.816;9.118;2023-04-15T04:12:52;11.13;;;4.10;;
25531;SDS011;13429;48.816;9.118;2023-04-15T04:15:18;8.98;;;4.35;;
25531;SDS011;13429;48.816;9.118;2023-04-15T04:17:45;7.07;;;4.57;;
25531;SDS011;13429;48.816;9.118;2023-04-15T04:20:11;7.65;;;3.63;;
25531;SDS011;13429;48.816;9.118;2023-04-15T04:22:40;9.35;;;4.35;;
25531;SDS011;13429;48.816;9.118;2023-04-15T04:25:06;10.52;;;4.40;;
25531;SDS011;13429;48.816;9.118;2023-04-15T04:27:34;5.68;;;3.13;;
25531;SDS011;13429;48.816;9.118;2023-04-15T04:30:00;7.20;;;3.63;;
25531;SDS011;13429;48.816;9.118;2023-04-15T04:32:26;12.25;;;4.80;;
25531;SDS011;13429;48.816;9.118;2023-04-15T04:34:52;7.47;;;4.35;;
25531;SDS011;13429;48.816;9.118;2023-04-15T04:37:18;10.35;;;4.68;;
25531;SDS011;13429;48.816;9.118;2023-04-15T04:39:44;8.85;;;5.05;;
25531;SDS011;13429;48.816;9.118;2023-04-15T04:42:10;8.45;;;4.10;;
25531;SDS011;13429;48.816;9.118;2023-04-15T04:44:36;8.50;;;4.32;;
25531;SDS011;13429;48.816;9.118;2023-04-15T04:47:03;6.28;;;4.53;;
25531;SDS011;13429;48.816;9.118;2023-04-15T04:49:30;12.02;;;5.70;;
25531;SDS011;13429;48.816;9.118;2023-04-15T04:51:56;7.43;;;4.85;;
25531;SDS011;13429;48.816;9.118;2023-04-15T04:54:22;7.63;;;4.80;;
25531;SDS011;13429;48.816;9.118;2023-04-15T04:56:48;9.38;;;4.53;;
25531;SDS011;13429;48.816;9.118;2023-04-15T04:59:14;12.50;;;4.78;;
25531;SDS011;13429;48.816;9.118;2023-04-15T05:01:41;8.88;;;4.95;;
25531;SDS011;13429;48.816;9.118;2023-04-15T05:04:07;13.43;;;5.97;;
25531;SDS011;13429;48.816;9.118;2023-04-15T05:06:33;11.15;;;5.25;;
25531;SDS011;13429;48.816;9.118;2023-04-15T05:09:00;11.13;;;5.45;;
25531;SDS011;13429;48.816;9.118;2023-04-15T05:11:27;9.30;;;5.35;;
25531;SDS011;13429;48.816;9.118;2023-04-15T05:13:53;9.05;;;5.47;;
25531;SDS011;13429;48.816;9.118;2023-04-15T05:16:19;9.88;;;5.68;;
25531;SDS011;13429;48.816;9.118;2023-04-15T05:18:45;11.90;;;6.18;;
25531;SDS011;13429;48.816;9.118;2023-04-15T05:21:11;10.18;;;5.47;;
25531;SDS011;13429;48.816;9.118;2023-04-15T05:23:37;11.75;;;5.22;;
25531;SDS011;13429;48.816;9.118;2023-04-15T05:26:06;10.80;;;5.22;;
25531;SDS011;13429;48.816;9.118;2023-04-15T05:28:32;12.45;;;5.32;;
25531;SDS011;13429;48.816;9.118;2023-04-15T05:30:58;8.00;;;4.50;;
25531;SDS011;13429;48.816;9.118;2023-04-15T05:33:24;8.20;;;4.82;;
25531;SDS011;13429;48.816;9.118;2023-04-15T05:35:50;11.00;;;5.35;;
25531;SDS011;13429;48.816;9.118;2023-04-15T05:38:16;9.13;;;4.65;;
25531;SDS011;13429;48.816;9.118;2023-04-15T05:40:42;8.77;;;5.05;;
25531;SDS011;13429;48.816;9.118;2023-04-15T05:43:08;12.80;;;5.35;;
25531;SDS011;13429;48.816;9.118;2023-04-15T05:45:34;9.07;;;4.90;;
25531;SDS011;13429;48.816;9.118;2023-04-15T05:48:00;8.90;;;4.80;;
25531;SDS011;13429;48.816;9.118;2023-04-15T05:50:27;11.75;;;5.85;;
25531;SDS011;13429;48.816;9.118;2023-04-15T05:52:56;10.85;;;4.85;;
25531;SDS011;13429;48.816;9.118;2023-04-15T05:55:22;11.68;;;5.78;;
25531;SDS011;13429;48.816;9.118;2023-04-15T05:57:48;10.98;;;5.00;;
25531;SDS011;13429;48.816;9.118;2023-04-15T06:00:14;11.63;;;4.88;;
25531;SDS011;13429;48.816;9.118;2023-04-15T06:02:40;12.32;;;5.18;;
25531;SDS011;13429;48.816;9.118;2023-04-15T06:05:06;13.95;;;5.75;;
25531;SDS011;13429;48.816;9.118;2023-04-15T06:07:37;13.27;;;5.70;;
25531;SDS011;13429;48.816;9.118;2023-04-15T06:10:03;11.93;;;5.03;;
25531;SDS011;13429;48.816;9.118;2023-04-15T06:12:29;10.00;;;5.07;;
25531;SDS011;13429;48.816;9.118;2023-04-15T06:14:56;10.65;;;5.15;;
25531;SDS011;13429;48.816;9.118;2023-04-15T06:17:22;9.52;;;4.85;;
25531;SDS011;13429;48.816;9.118;2023-04-15T06:19:48;9.05;;;5.45;;
25531;SDS011;13429;48.816;9.118;2023-04-15T06:24:45;11.65;;;5.38;;
25531;SDS011;13429;48.816;9.118;2023-04-15T06:27:11;7.82;;;5.28;;
25531;SDS011;13429;48.816;9.118;2023-04-15T06:29:37;10.30;;;4.57;;
25531;SDS011;13429;48.816;9.118;2023-04-15T06:32:03;13.85;;;5.18;;
25531;SDS011;13429;48.816;9.118;2023-04-15T06:34:29;11.80;;;4.40;;
25531;SDS011;13429;48.816;9.118;2023-04-15T06:36:55;9.65;;;4.60;;
25531;SDS011;13429;48.816;9.118;2023-04-15T06:39:21;8.30;;;4.65;;
25531;SDS011;13429;48.816;9.118;2023-04-15T06:41:47;11.35;;;5.63;;
25531;SDS011;13429;48.816;9.118;2023-04-15T06:44:14;8.43;;;4.10;;
25531;SDS011;13429;48.816;9.118;2023-04-15T06:46:40;9.50;;;5.43;;
25531;SDS011;13429;48.816;9.118;2023-04-15T06:49:06;8.80;;;5.00;;
25531;SDS011;13429;48.816;9.118;2023-04-15T06:51:33;14.35;;;5.03;;
25531;SDS011;13429;48.816;9.118;2023-04-15T06:53:59;8.38;;;5.43;;
25531;SDS011;13429;48.816;9.118;2023-04-15T06:56:26;7.75;;;4.57;;
25531;SDS011;13429;48.816;9.118;2023-04-15T06:58:52;7.88;;;4.72;;
25531;SDS011;13429;48.816;9.118;2023-04-15T07:01:18;8.35;;;4.70;;
25531;SDS011;13429;48.816;9.118;2023-04-15T07:03:45;11.25;;;5.13;;
25531;SDS011;13429;48.816;9.118;2023-04-15T07:06:11;9.50;;;4.07;;
25531;SDS011;13429;48.816;9.118;2023-04-15T07:08:38;8.93;;;3.95;;
25531;SDS011;13429;48.816;9.118;2023-04-15T07:11:04;9.30;;;4.97;;
25531;SDS011;13429;48.816;9.118;2023-04-15T07:13:30;6.95;;;3.33;;
25531;SDS011;13429;48.816;9.118;2023-04-15T07:15:57;8.57;;;4.18;;
25531;SDS011;13429;48.816;9.118;2023-04-15T07:18:23;7.38;;;3.40;;
25531;SDS011;13429;48.816;9.118;2023-04-15T07:20:49;8.20;;;3.33;;
25531;SDS011;13429;48.816;9.118;2023-04-15T07:23:15;7.15;;;3.53;;
25531;SDS011;13429;48.816;9.118;2023-04-15T07:25:42;6.95;;;3.25;;
25531;SDS011;13429;48.816;9.118;2023-04-15T07:28:08;11.65;;;3.53;;
25531;SDS011;13429;48.816;9.118;2023-04-15T07:30:34;8.10;;;2.80;;
25531;SDS011;13429;48.816;9.118;2023-04-15T07:33:00;8.30;;;3.33;;
25531;SDS011;13429;48.816;9.118;2023-04-15T07:35:27;16.25;;;7.60;;
25531;SDS011;13429;48.816;9.118;2023-04-15T07:37:53;14.73;;;4.72;;
25531;SDS011;13429;48.816;9.118;2023-04-15T07:40:19;9.20;;;4.00;;
25531;SDS011;13429;48.816;9.118;2023-04-15T07:42:46;7.00;;;3.20;;
25531;SDS011;13429;48.816;9.118;2023-04-15T07:45:13;8.25;;;3.03;;
25531;SDS011;13429;48.816;9.118;2023-04-15T07:47:40;8.02;;;3.33;;
25531;SDS011;13429;48.816;9.118;2023-04-15T07:50:06;11.80;;;2.70;;
25531;SDS011;13429;48.816;9.118;2023-04-15T07:52:32;4.70;;;2.50;;
25531;SDS011;13429;48.816;9.118;2023-04-15T07:55:03;7.57;;;3.30;;
25531;SDS011;13429;48.816;9.118;2023-04-15T07:57:30;10.07;;;3.58;;
25531;SDS011;13429;48.816;9.118;2023-04-15T07:59:56;8.82;;;3.53;;
25531;SDS011;13429;48.816;9.118;2023-04-15T08:02:22;9.07;;;3.20;;
25531;SDS011;13429;48.816;9.118;2023-04-15T08:04:48;7.13;;;3.13;;
25531;SDS011;13429;48.816;9.118;2023-04-15T08:07:14;7.47;;;2.92;;
25531;SDS011;13429;48.816;9.118;2023-04-15T08:09:40;4.75;;;2.97;;
25531;SDS011;13429;48.816;9.118;2023-04-15T08:12:06;4.95;;;2.83;;
25531;SDS011;13429;48.816;9.118;2023-04-15T08:14:33;6.68;;;2.42;;
25531;SDS011;13429;48.816;9.118;2023-04-15T08:16:59;6.82;;;2.95;;
25531;SDS011;13429;48.816;9.118;2023-04-15T08:19:25;9.32;;;2.45;;
25531;SDS011;13429;48.816;9.118;2023-04-15T08:21:51;5.05;;;2.35;;
25531;SDS011;13429;48.816;9.118;2023-04-15T08:24:17;7.80;;;3.17;;
25531;SDS011;13429;48.816;9.118;2023-04-15T08:26:43;6.78;;;2.40;;
25531;SDS011;13429;48.816;9.118;2023-04-15T08:29:11;7.60;;;2.63;;
25531;SDS011;13429;48.816;9.118;2023-04-15T08:31:37;4.00;;;2.05;;
25531;SDS011;13429;48.816;9.118;2023-04-15T08:34:03;8.48;;;2.83;;
25531;SDS011;13429;48.816;9.118;2023-04-15T08:36:29;7.10;;;2.72;;
25531;SDS011;13429;48.816;9.118;2023-04-15T08:38:56;6.97;;;3.10;;
25531;SDS011;13429;48.816;9.118;2023-04-15T08:41:23;6.22;;;2.72;;
25531;SDS011;13429;48.816;9.118;2023-04-15T08:43:57;10.30;;;3.45;;
25531;SDS011;13429;48.816;9.118;2023-04-15T08:46:23;6.80;;;2.42;;
25531;SDS011;13429;48.816;9.118;2023-04-15T08:48:49;9.05;;;3.05;;
25531;SDS011;13429;48.816;9.118;2023-04-15T08:51:16;8.88;;;2.97;;
25531;SDS011;13429;48.816;9.118;2023-04-15T08:53:45;3.22;;;2.00;;
25531;SDS011;13429;48.816;9.118;2023-04-15T08:56:12;7.00;;;3.17;;
25531;SDS011;13429;48.816;9.118;2023-04-15T08:58:39;4.70;;;2.20;;
25531;SDS011;13429;48.816;9.118;2023-04-15T09:01:06;5.57;;;2.55;;
25531;SDS011;13429;48.816;9.118;2023-04-15T09:03:32;6.63;;;2.15;;
25531;SDS011;13429;48.816;9.118;2023-04-15T09:05:59;10.63;;;2.50;;
25531;SDS011;13429;48.816;9.118;2023-04-15T09:08:25;12.13;;;2.67;;
25531;SDS011;13429;48.816;9.118;2023-04-15T09:10:52;6.18;;;2.30;;
25531;SDS011;13429;48.816;9.118;2023-04-15T09:13:18;7.15;;;2.85;;
25531;SDS011;13429;48.816;9.118;2023-04-15T09:15:44;6.07;;;2.55;;
25531;SDS011;13429;48.816;9.118;2023-04-15T09:18:11;7.65;;;3.05;;
25531;SDS011;13429;48.816;9.118;2023-04-15T09:20:38;6.97;;;2.80;;
25531;SDS011;13429;48.816;9.118;2023-04-15T09:23:12;4.10;;;2.58;;
25531;SDS011;13429;48.816;9.118;2023-04-15T09:25:39;4.47;;;2.38;;
25531;SDS011;13429;48.816;9.118;2023-04-15T09:28:08;6.40;;;2.10;;
25531;SDS011;13429;48.816;9.118;2023-04-15T09:30:35;7.63;;;2.90;;
25531;SDS011;13429;48.816;9.118;2023-04-15T09:33:02;6.32;;;2.55;;
25531;SDS011;13429;48.816;9.118;2023-04-15T09:35:32;3.17;;;1.77;;
25531;SDS011;13429;48.816;9.118;2023-04-15T09:38:02;5.00;;;2.28;;
25531;SDS011;13429;48.816;9.118;2023-04-15T09:40:41;3.83;;;2.25;;
25531;SDS011;13429;48.816;9.118;2023-04-15T09:43:08;7.85;;;3.00;;
25531;SDS011;13429;48.816;9.118;2023-04-15T09:45:36;6.65;;;2.97;;
25531;SDS011;13429;48.816;9.118;2023-04-15T09:50:48;7.10;;;3.00;;
25531;SDS011;13429;48.816;9.118;2023-04-15T09:53:15;7.40;;;3.58;;
25531;SDS011;13429;48.816;9.118;2023-04-15T10:00:48;4.03;;;2.35;;
25531;SDS011;13429;48.816;9.118;2023-04-15T10:03:18;7.25;;;2.75;;
25531;SDS011;13429;48.816;9.118;2023-04-15T10:05:45;4.80;;;2.75;;
25531;SDS011;13429;48.816;9.118;2023-04-15T10:08:12;5.63;;;3.28;;
25531;SDS011;13429;48.816;9.118;2023-04-15T10:10:38;6.10;;;2.60;;
25531;SDS011;13429;48.816;9.118;2023-04-15T10:13:05;3.75;;;2.47;;
25531;SDS011;13429;48.816;9.118;2023-04-15T10:15:31;4.05;;;2.40;;
25531;SDS011;13429;48.816;9.118;2023-04-15T10:17:59;10.40;;;3.00;;
25531;SDS011;13429;48.816;9.118;2023-04-15T10:20:25;10.07;;;2.80;;
25531;SDS011;13429;48.816;9.118;2023-04-15T10:22:51;5.30;;;2.33;;
25531;SDS011;13429;48.816;9.118;2023-04-15T10:25:18;14.05;;;2.70;;
25531;SDS011;13429;48.816;9.118;2023-04-15T10:27:44;5.40;;;2.65;;
25531;SDS011;13429;48.816;9.118;2023-04-15T10:30:12;6.63;;;2.58;;
25531;SDS011;13429;48.816;9.118;2023-04-15T10:32:38;6.15;;;2.47;;
25531;SDS011;13429;48.816;9.118;2023-04-15T10:35:05;4.60;;;3.05;;
25531;SDS011;13429;48.816;9.118;2023-04-15T10:37:36;5.40;;;3.03;;
25531;SDS011;13429;48.816;9.118;2023-04-15T10:40:36;5.72;;;3.65;;
25531;SDS011;13429;48.816;9.118;2023-04-15T10:42:59;5.00;;;2.97;;
25531;SDS011;13429;48.816;9.118;2023-04-15T10:45:35;4.07;;;2.22;;
25531;SDS011;13429;48.816;9.118;2023-04-15T10:48:02;4.43;;;2.88;;
25531;SDS011;13429;48.816;9.118;2023-04-15T10:50:29;4.93;;;2.85;;
25531;SDS011;13429;48.816;9.118;2023-04-15T10:52:57;3.65;;;2.75;;
25531;SDS011;13429;48.816;9.118;2023-04-15T10:55:24;6.93;;;2.83;;
25531;SDS011;13429;48.816;9.118;2023-04-15T10:57:57;4.70;;;2.72;;
25531;SDS011;13429;48.816;9.118;2023-04-15T11:00:25;4.72;;;2.20;;
25531;SDS011;13429;48.816;9.118;2023-04-15T11:02:55;6.25;;;2.55;;
25531;SDS011;13429;48.816;9.118;2023-04-15T11:05:22;9.60;;;2.63;;
25531;SDS011;13429;48.816;9.118;2023-04-15T11:08:11;5.75;;;2.80;;
25531;SDS011;13429;48.816;9.118;2023-04-15T11:13:04;4.15;;;2.20;;
25531;SDS011;13429;48.816;9.118;2023-04-15T11:15:40;4.05;;;2.28;;
25531;SDS011;13429;48.816;9.118;2023-04-15T11:20:36;7.13;;;2.85;;
25531;SDS011;13429;48.816;9.118;2023-04-15T11:23:03;4.82;;;2.25;;
25531;SDS011;13429;48.816;9.118;2023-04-15T11:25:32;7.18;;;3.10;;
25531;SDS011;13429;48.816;9.118;2023-04-15T11:27:59;4.15;;;2.60;;
25531;SDS011;13429;48.816;9.118;2023-04-15T11:30:29;4.53;;;2.92;;
25531;SDS011;13429;48.816;9.118;2023-04-15T11:32:57;8.87;;;3.33;;
25531;SDS011;13429;48.816;9.118;2023-04-15T11:35:23;11.18;;;3.33;;
25531;SDS011;13429;48.816;9.118;2023-04-15T11:37:49;8.20;;;3.28;;
25531;SDS011;13429;48.816;9.118;2023-04-15T11:40:16;11.57;;;3.33;;
25531;SDS011;13429;48.816;9.118;2023-04-15T11:42:43;6.55;;;2.95;;
25531;SDS011;13429;48.816;9.118;2023-04-15T11:45:10;7.15;;;3.58;;
25531;SDS011;13429;48.816;9.118;2023-04-15T11:47:36;8.27;;;3.10;;
25531;SDS011;13429;48.816;9.118;2023-04-15T11:50:18;6.25;;;3.05;;
25531;SDS011;13429;48.816;9.118;2023-04-15T11:52:55;7.70;;;3.47;;
25531;SDS011;13429;48.816;9.118;2023-04-15T11:55:21;6.95;;;3.13;;
25531;SDS011;13429;48.816;9.118;2023-04-15T11:57:49;6.53;;;2.85;;
25531;SDS011;13429;48.816;9.118;2023-04-15T12:00:15;4.90;;;2.80;;
25531;SDS011;13429;48.816;9.118;2023-04-15T12:02:42;6.25;;;2.83;;
25531;SDS011;13429;48.816;9.118;2023-04-15T12:05:08;6.47;;;3.22;;
25531;SDS011;13429;48.816;9.118;2023-04-15T12:10:23;5.53;;;3.15;;
25531;SDS011;13429;48.816;9.118;2023-04-15T12:12:51;5.82;;;3.05;;
25531;SDS011;13429;48.816;9.118;2023-04-15T12:15:20;4.60;;;2.55;;
25531;SDS011;13429;48.816;9.118;2023-04-15T12:17:47;6.10;;;3.05;;
25531;SDS011;13429;48.816;9.118;2023-04-15T12:20:19;5.25;;;2.58;;
25531;SDS011;13429;48.816;9.118;2023-04-15T12:22:45;5.05;;;2.90;;
25531;SDS011;13429;48.816;9.118;2023-04-15T12:25:11;6.38;;;2.83;;
25531;SDS011;13429;48.816;9.118;2023-04-15T12:27:37;4.45;;;1.88;;
25531;SDS011;13429;48.816;9.118;2023-04-15T12:30:03;8.50;;;3.85;;
25531;SDS011;13429;48.816;9.118;2023-04-15T12:32:29;6.65;;;3.22;;
25531;SDS011;13429;48.816;9.118;2023-04-15T12:35:00;5.72;;;2.88;;
25531;SDS011;13429;48.816;9.118;2023-04-15T12:37:26;7.90;;;3.38;;
25531;SDS011;13429;48.816;9.118;2023-04-15T12:39:52;3.92;;;2.53;;
25531;SDS011;13429;48.816;9.118;2023-04-15T12:42:18;8.57;;;2.88;;
25531;SDS011;13429;48.816;9.118;2023-04-15T12:44:46;5.95;;;3.08;;
25531;SDS011;13429;48.816;9.118;2023-04-15T12:47:12;6.13;;;3.30;;
25531;SDS011;13429;48.816;9.118;2023-04-15T12:49:39;7.85;;;3.20;;
25531;SDS011;13429;48.816;9.118;2023-04-15T12:52:05;7.88;;;2.70;;
25531;SDS011;13429;48.816;9.118;2023-04-15T12:54:31;2.83;;;2.17;;
25531;SDS011;13429;48.816;9.118;2023-04-15T12:56:57;3.72;;;2.15;;
25531;SDS011;13429;48.816;9.118;2023-04-15T12:59:24;5.00;;;2.50;;
25531;SDS011;13429;48.816;9.118;2023-04-15T13:01:50;5.70;;;2.40;;
25531;SDS011;13429;48.816;9.118;2023-04-15T13:04:17;3.83;;;2.33;;
25531;SDS011;13429;48.816;9.118;2023-04-15T13:06:43;13.00;;;2.95;;
25531;SDS011;13429;48.816;9.118;2023-04-15T13:09:09;6.13;;;3.03;;
25531;SDS011;13429;48.816;9.118;2023-04-15T13:11:36;4.95;;;2.33;;
25531;SDS011;13429;48.816;9.118;2023-04-15T13:14:05;6.68;;;2.38;;
25531;SDS011;13429;48.816;9.118;2023-04-15T13:16:32;4.53;;;2.17;;
25531;SDS011;13429;48.816;9.118;2023-04-15T13:18:59;3.70;;;1.83;;
25531;SDS011;13429;48.816;9.118;2023-04-15T13:21:25;4.68;;;2.45;;
25531;SDS011;13429;48.816;9.118;2023-04-15T13:23:52;3.63;;;2.20;;
25531;SDS011;13429;48.816;9.118;2023-04-15T13:26:18;5.80;;;2.45;;
25531;SDS011;13429;48.816;9.118;2023-04-15T13:28:44;4.38;;;2.40;;
25531;SDS011;13429;48.816;9.118;2023-04-15T13:31:10;4.90;;;2.08;;
25531;SDS011;13429;48.816;9.118;2023-04-15T13:33:37;4.22;;;2.05;;
25531;SDS011;13429;48.816;9.118;2023-04-15T13:36:03;5.97;;;1.90;;
25531;SDS011;13429;48.816;9.118;2023-04-15T13:38:29;6.90;;;1.92;;
25531;SDS011;13429;48.816;9.118;2023-04-15T13:40:55;3.55;;;1.83;;
25531;SDS011;13429;48.816;9.118;2023-04-15T13:43:21;6.07;;;1.83;;
25531;SDS011;13429;48.816;9.118;2023-04-15T13:45:47;3.80;;;1.70;;
25531;SDS011;13429;48.816;9.118;2023-04-15T13:48:13;3.55;;;1.48;;
25531;SDS011;13429;48.816;9.118;2023-04-15T13:50:39;5.05;;;1.55;;
25531;SDS011;13429;48.816;9.118;2023-04-15T13:53:09;2.05;;;1.15;;
25531;SDS011;13429;48.816;9.118;2023-04-15T13:55:35;7.15;;;1.80;;
25531;SDS011;13429;48.816;9.118;2023-04-15T13:58:05;2.42;;;1.42;;
25531;SDS011;13429;48.816;9.118;2023-04-15T14:00:31;4.30;;;1.40;;
25531;SDS011;13429;48.816;9.118;2023-04-15T14:02:57;2.05;;;1.50;;
25531;SDS011;13429;48.816;9.118;2023-04-15T14:05:23;3.78;;;1.77;;
25531;SDS011;13429;48.816;9.118;2023-04-15T14:07:49;3.28;;;1.42;;
25531;SDS011;13429;48.816;9.118;2023-04-15T14:10:15;3.42;;;0.82;;
25531;SDS011;13429;48.816;9.118;2023-04-15T14:12:41;1.10;;;0.70;;
25531;SDS011;13429;48.816;9.118;2023-04-15T14:15:07;2.85;;;1.20;;
25531;SDS011;13429;48.816;9.118;2023-04-15T14:17:33;2.58;;;1.10;;
25531;SDS011;13429;48.816;9.118;2023-04-15T14:20:00;2.20;;;1.23;;
25531;SDS011;13429;48.816;9.118;2023-04-15T14:22:26;4.63;;;1.30;;
25531;SDS011;13429;48.816;9.118;2023-04-15T14:24:52;4.65;;;1.45;;
25531;SDS011;13429;48.816;9.118;2023-04-15T14:27:19;3.47;;;1.35;;
25531;SDS011;13429;48.816;9.118;2023-04-15T14:29:45;2.97;;;1.20;;
25531;SDS011;13429;48.816;9.118;2023-04-15T14:32:14;3.88;;;1.63;;
25531;SDS011;13429;48.816;9.118;2023-04-15T14:34:40;2.97;;;1.33;;
25531;SDS011;13429;48.816;9.118;2023-04-15T14:37:06;4.25;;;1.48;;
25531;SDS011;13429;48.816;9.118;2023-04-15T14:39:32;5.00;;;2.45;;
25531;SDS011;13429;48.816;9.118;2023-04-15T14:41:58;1.70;;;1.17;;
25531;SDS011;13429;48.816;9.118;2023-04-15T14:44:25;4.10;;;2.08;;
25531;SDS011;13429;48.816;9.118;2023-04-15T14:46:51;7.78;;;2.17;;
25531;SDS011;13429;48.816;9.118;2023-04-15T14:49:17;5.43;;;1.92;;
25531;SDS011;13429;48.816;9.118;2023-04-15T14:51:43;4.15;;;2.35;;
25531;SDS011;13429;48.816;9.118;2023-04-15T14:54:10;3.88;;;2.00;;
25531;SDS011;13429;48.816;9.118;2023-04-15T14:56:36;4.00;;;2.25;;
25531;SDS011;13429;48.816;9.118;2023-04-15T14:59:02;3.53;;;2.10;;
25531;SDS011;13429;48.816;9.118;2023-04-15T15:01:28;3.55;;;2.10;;